sensor_id;sensor_type;location;lat;lon;timestamp;temperature;humidity
66740;DHT22;53653;52.188;8.602;2023-12-29T00:02:19;10.56;75.11
66740;DHT22;53653;52.188;8.602;2023-12-29T00:04:45;10.61;75.28
66740;DHT22;53653;52.188;8.602;2023-12-29T00:07:11;10.60;75.57
66740;DHT22;53653;52.188;8.602;2023-12-29T00:09:36;10.59;75.73
66740;DHT22;53653;52.188;8.602;2023-12-29T00:12:06;10.55;75.94
66740;DHT22;53653;52.188;8.602;2023-12-29T00:14:33;10.59;75.74
66740;DHT22;53653;52.188;8.602;2023-12-29T00:16:58;10.61;75.54
66740;DHT22;53653;52.188;8.602;2023-12-29T00:19:25;10.61;75.50
66740;DHT22;53653;52.188;8.602;2023-12-29T00:21:50;10.59;75.52
66740;DHT22;53653;52.188;8.602;2023-12-29T00:24:16;10.66;75.35
66740;DHT22;53653;52.188;8.602;2023-12-29T00:26:42;10.68;75.16
66740;DHT22;53653;52.188;8.602;2023-12-29T00:29:07;10.70;75.34
66740;DHT22;53653;52.188;8.602;2023-12-29T00:31:33;10.71;75.37
66740;DHT22;53653;52.188;8.602;2023-12-29T00:33:59;10.73;75.31
66740;DHT22;53653;52.188;8.602;2023-12-29T00:36:24;10.77;75.33
66740;DHT22;53653;52.188;8.602;2023-12-29T00:38:50;10.78;75.50
66740;DHT22;53653;52.188;8.602;2023-12-29T00:41:16;10.74;75.90
66740;DHT22;53653;52.188;8.602;2023-12-29T00:43:42;10.73;76.33
66740;DHT22;53653;52.188;8.602;2023-12-29T00:46:08;10.74;76.25
66740;DHT22;53653;52.188;8.602;2023-12-29T00:48:35;10.76;76.32
66740;DHT22;53653;52.188;8.602;2023-12-29T00:51:01;10.74;76.55
66740;DHT22;53653;52.188;8.602;2023-12-29T00:53:29;10.70;76.80
66740;DHT22;53653;52.188;8.602;2023-12-29T00:55:57;10.68;77.32
66740;DHT22;53653;52.188;8.602;2023-12-29T00:58:23;10.60;78.19
66740;DHT22;53653;52.188;8.602;2023-12-29T01:00:48;10.49;79.46
66740;DHT22;53653;52.188;8.602;2023-12-29T01:03:14;10.36;81.03
66740;DHT22;53653;52.188;8.602;2023-12-29T01:05:39;10.30;81.36
66740;DHT22;53653;52.188;8.602;2023-12-29T01:08:05;10.15;81.33
66740;DHT22;53653;52.188;8.602;2023-12-29T01:10:30;10.22;81.14
66740;DHT22;53653;52.188;8.602;2023-12-29T01:12:56;10.18;81.20
66740;DHT22;53653;52.188;8.602;2023-12-29T01:15:21;10.23;81.09
66740;DHT22;53653;52.188;8.602;2023-12-29T01:17:47;10.28;80.28
66740;DHT22;53653;52.188;8.602;2023-12-29T01:20:12;10.30;79.92
66740;DHT22;53653;52.188;8.602;2023-12-29T01:22:38;10.33;80.35
66740;DHT22;53653;52.188;8.602;2023-12-29T01:25:04;10.30;80.59
66740;DHT22;53653;52.188;8.602;2023-12-29T01:27:29;10.36;80.20
66740;DHT22;53653;52.188;8.602;2023-12-29T01:29:55;10.36;79.84
66740;DHT22;53653;52.188;8.602;2023-12-29T01:32:21;10.42;79.60
66740;DHT22;53653;52.188;8.602;2023-12-29T01:34:47;10.42;79.42
66740;DHT22;53653;52.188;8.602;2023-12-29T01:37:13;10.49;79.21
66740;DHT22;53653;52.188;8.602;2023-12-29T01:39:39;10.49;79.05
66740;DHT22;53653;52.188;8.602;2023-12-29T01:42:07;10.40;79.26
66740;DHT22;53653;52.188;8.602;2023-12-29T01:44:34;10.46;79.09
66740;DHT22;53653;52.188;8.602;2023-12-29T01:47:00;10.46;78.79
66740;DHT22;53653;52.188;8.602;2023-12-29T01:49:26;10.57;78.43
66740;DHT22;53653;52.188;8.602;2023-12-29T01:51:59;10.63;78.02
66740;DHT22;53653;52.188;8.602;2023-12-29T01:54:27;10.63;77.95
66740;DHT22;53653;52.188;8.602;2023-12-29T01:56:56;10.71;77.93
66740;DHT22;53653;52.188;8.602;2023-12-29T01:59:25;10.70;78.07
66740;DHT22;53653;52.188;8.602;2023-12-29T02:01:50;10.73;78.03
66740;DHT22;53653;52.188;8.602;2023-12-29T02:04:17;10.77;77.44
66740;DHT22;53653;52.188;8.602;2023-12-29T02:06:43;10.81;77.27
66740;DHT22;53653;52.188;8.602;2023-12-29T02:09:09;10.93;76.93
66740;DHT22;53653;52.188;8.602;2023-12-29T02:11:34;10.87;77.43
66740;DHT22;53653;52.188;8.602;2023-12-29T02:14:01;10.80;78.50
66740;DHT22;53653;52.188;8.602;2023-12-29T02:16:33;10.74;79.21
66740;DHT22;53653;52.188;8.602;2023-12-29T02:19:01;10.73;79.96
66740;DHT22;53653;52.188;8.602;2023-12-29T02:21:29;10.67;80.15
66740;DHT22;53653;52.188;8.602;2023-12-29T02:23:55;10.56;80.92
66740;DHT22;53653;52.188;8.602;2023-12-29T02:26:22;10.59;80.70
66740;DHT22;53653;52.188;8.602;2023-12-29T02:28:57;10.55;80.69
66740;DHT22;53653;52.188;8.602;2023-12-29T02:31:27;10.57;80.63
66740;DHT22;53653;52.188;8.602;2023-12-29T02:33:54;10.56;80.23
66740;DHT22;53653;52.188;8.602;2023-12-29T02:36:22;10.73;79.04
66740;DHT22;53653;52.188;8.602;2023-12-29T02:38:48;10.70;78.97
66740;DHT22;53653;52.188;8.602;2023-12-29T02:41:13;10.78;78.38
66740;DHT22;53653;52.188;8.602;2023-12-29T02:43:40;10.77;78.08
66740;DHT22;53653;52.188;8.602;2023-12-29T02:46:05;10.87;77.65
66740;DHT22;53653;52.188;8.602;2023-12-29T02:48:31;10.91;77.06
66740;DHT22;53653;52.188;8.602;2023-12-29T02:50:56;10.94;77.13
66740;DHT22;53653;52.188;8.602;2023-12-29T02:53:22;10.93;77.35
66740;DHT22;53653;52.188;8.602;2023-12-29T02:55:47;10.81;77.89
66740;DHT22;53653;52.188;8.602;2023-12-29T02:58:13;10.85;77.93
66740;DHT22;53653;52.188;8.602;2023-12-29T03:00:38;10.76;78.43
66740;DHT22;53653;52.188;8.602;2023-12-29T03:03:04;10.68;79.13
66740;DHT22;53653;52.188;8.602;2023-12-29T03:05:30;10.60;79.86
66740;DHT22;53653;52.188;8.602;2023-12-29T03:07:56;10.55;80.87
66740;DHT22;53653;52.188;8.602;2023-12-29T03:10:23;10.50;81.64
66740;DHT22;53653;52.188;8.602;2023-12-29T03:12:48;10.38;82.26
66740;DHT22;53653;52.188;8.602;2023-12-29T03:15:14;10.25;83.47
66740;DHT22;53653;52.188;8.602;2023-12-29T03:17:40;10.23;84.24
66740;DHT22;53653;52.188;8.602;2023-12-29T03:20:06;10.11;85.12
66740;DHT22;53653;52.188;8.602;2023-12-29T03:22:33;10.06;85.16
66740;DHT22;53653;52.188;8.602;2023-12-29T03:24:58;9.95;85.78
66740;DHT22;53653;52.188;8.602;2023-12-29T03:27:24;9.92;85.52
66740;DHT22;53653;52.188;8.602;2023-12-29T03:29:49;9.90;85.57
66740;DHT22;53653;52.188;8.602;2023-12-29T03:32:15;9.90;85.53
66740;DHT22;53653;52.188;8.602;2023-12-29T03:34:41;9.87;85.39
66740;DHT22;53653;52.188;8.602;2023-12-29T03:37:06;9.85;85.40
66740;DHT22;53653;52.188;8.602;2023-12-29T03:39:32;9.81;85.35
66740;DHT22;53653;52.188;8.602;2023-12-29T03:42:01;9.84;85.21
66740;DHT22;53653;52.188;8.602;2023-12-29T03:44:26;9.82;85.28
66740;DHT22;53653;52.188;8.602;2023-12-29T03:46:52;9.85;85.04
66740;DHT22;53653;52.188;8.602;2023-12-29T03:49:17;9.87;84.84
66740;DHT22;53653;52.188;8.602;2023-12-29T03:51:42;9.90;84.74
66740;DHT22;53653;52.188;8.602;2023-12-29T03:54:08;9.87;85.63
66740;DHT22;53653;52.188;8.602;2023-12-29T03:56:33;9.75;86.53
66740;DHT22;53653;52.188;8.602;2023-12-29T03:58:59;9.73;86.43
66740;DHT22;53653;52.188;8.602;2023-12-29T04:01:24;9.74;86.00
66740;DHT22;53653;52.188;8.602;2023-12-29T04:03:50;9.81;85.66
66740;DHT22;53653;52.188;8.602;2023-12-29T04:06:16;9.85;85.53
66740;DHT22;53653;52.188;8.602;2023-12-29T04:08:42;9.84;85.44
66740;DHT22;53653;52.188;8.602;2023-12-29T04:11:07;9.80;85.56
66740;DHT22;53653;52.188;8.602;2023-12-29T04:13:34;9.85;86.24
66740;DHT22;53653;52.188;8.602;2023-12-29T04:16:00;9.80;87.41
66740;DHT22;53653;52.188;8.602;2023-12-29T04:18:25;9.61;88.68
66740;DHT22;53653;52.188;8.602;2023-12-29T04:20:51;9.57;89.24
66740;DHT22;53653;52.188;8.602;2023-12-29T04:23:16;9.48;89.72
66740;DHT22;53653;52.188;8.602;2023-12-29T04:25:42;9.41;90.08
66740;DHT22;53653;52.188;8.602;2023-12-29T04:28:08;9.46;90.27
66740;DHT22;53653;52.188;8.602;2023-12-29T04:30:34;9.44;90.27
66740;DHT22;53653;52.188;8.602;2023-12-29T04:33:00;9.47;90.10
66740;DHT22;53653;52.188;8.602;2023-12-29T04:35:25;9.44;90.15
66740;DHT22;53653;52.188;8.602;2023-12-29T04:37:51;9.41;90.60
66740;DHT22;53653;52.188;8.602;2023-12-29T04:40:16;9.43;90.55
66740;DHT22;53653;52.188;8.602;2023-12-29T04:42:42;9.44;90.62
66740;DHT22;53653;52.188;8.602;2023-12-29T04:45:08;9.43;90.56
66740;DHT22;53653;52.188;8.602;2023-12-29T04:47:35;9.41;90.69
66740;DHT22;53653;52.188;8.602;2023-12-29T04:50:01;9.48;90.37
66740;DHT22;53653;52.188;8.602;2023-12-29T04:52:27;9.53;90.03
66740;DHT22;53653;52.188;8.602;2023-12-29T04:54:53;9.54;89.83
66740;DHT22;53653;52.188;8.602;2023-12-29T04:57:18;9.53;89.86
66740;DHT22;53653;52.188;8.602;2023-12-29T04:59:44;9.55;89.80
66740;DHT22;53653;52.188;8.602;2023-12-29T05:02:09;9.55;89.91
66740;DHT22;53653;52.188;8.602;2023-12-29T05:04:35;9.57;89.84
66740;DHT22;53653;52.188;8.602;2023-12-29T05:07:00;9.65;89.50
66740;DHT22;53653;52.188;8.602;2023-12-29T05:09:25;9.62;89.36
66740;DHT22;53653;52.188;8.602;2023-12-29T05:11:51;9.60;89.50
66740;DHT22;53653;52.188;8.602;2023-12-29T05:14:16;9.62;88.86
66740;DHT22;53653;52.188;8.602;2023-12-29T05:16:42;9.71;88.31
66740;DHT22;53653;52.188;8.602;2023-12-29T05:19:08;9.75;88.08
66740;DHT22;53653;52.188;8.602;2023-12-29T05:21:33;9.78;88.17
66740;DHT22;53653;52.188;8.602;2023-12-29T05:23:59;9.77;88.19
66740;DHT22;53653;52.188;8.602;2023-12-29T05:26:25;9.80;88.06
66740;DHT22;53653;52.188;8.602;2023-12-29T05:28:51;9.81;87.69
66740;DHT22;53653;52.188;8.602;2023-12-29T05:31:16;9.85;87.13
66740;DHT22;53653;52.188;8.602;2023-12-29T05:33:43;9.82;87.34
66740;DHT22;53653;52.188;8.602;2023-12-29T05:36:10;9.88;87.29
66740;DHT22;53653;52.188;8.602;2023-12-29T05:38:37;9.85;87.70
66740;DHT22;53653;52.188;8.602;2023-12-29T05:41:03;9.78;87.60
66740;DHT22;53653;52.188;8.602;2023-12-29T05:43:31;9.84;87.29
66740;DHT22;53653;52.188;8.602;2023-12-29T05:45:58;9.87;86.93
66740;DHT22;53653;52.188;8.602;2023-12-29T05:48:23;9.87;86.67
66740;DHT22;53653;52.188;8.602;2023-12-29T05:50:50;9.94;86.21
66740;DHT22;53653;52.188;8.602;2023-12-29T05:53:16;9.98;85.89
66740;DHT22;53653;52.188;8.602;2023-12-29T05:55:43;9.97;86.05
66740;DHT22;53653;52.188;8.602;2023-12-29T05:58:09;10.03;85.51
66740;DHT22;53653;52.188;8.602;2023-12-29T06:00:36;10.05;85.27
66740;DHT22;53653;52.188;8.602;2023-12-29T06:03:02;10.08;84.71
66740;DHT22;53653;52.188;8.602;2023-12-29T06:05:29;10.12;84.49
66740;DHT22;53653;52.188;8.602;2023-12-29T06:07:55;10.15;84.32
66740;DHT22;53653;52.188;8.602;2023-12-29T06:10:21;10.19;84.10
66740;DHT22;53653;52.188;8.602;2023-12-29T06:12:47;10.22;83.61
66740;DHT22;53653;52.188;8.602;2023-12-29T06:15:13;10.23;83.42
66740;DHT22;53653;52.188;8.602;2023-12-29T06:17:40;10.19;83.65
66740;DHT22;53653;52.188;8.602;2023-12-29T06:20:06;10.25;83.07
66740;DHT22;53653;52.188;8.602;2023-12-29T06:22:32;10.33;81.98
66740;DHT22;53653;52.188;8.602;2023-12-29T06:24:58;10.35;81.98
66740;DHT22;53653;52.188;8.602;2023-12-29T06:27:25;10.35;82.25
66740;DHT22;53653;52.188;8.602;2023-12-29T06:29:51;10.39;82.12
66740;DHT22;53653;52.188;8.602;2023-12-29T06:32:16;10.36;81.98
66740;DHT22;53653;52.188;8.602;2023-12-29T06:34:42;10.39;81.75
66740;DHT22;53653;52.188;8.602;2023-12-29T06:37:08;10.38;82.04
66740;DHT22;53653;52.188;8.602;2023-12-29T06:39:34;10.40;81.88
66740;DHT22;53653;52.188;8.602;2023-12-29T06:41:59;10.36;81.85
66740;DHT22;53653;52.188;8.602;2023-12-29T06:44:25;10.33;82.10
66740;DHT22;53653;52.188;8.602;2023-12-29T06:46:50;10.40;81.86
66740;DHT22;53653;52.188;8.602;2023-12-29T06:49:16;10.40;81.86
66740;DHT22;53653;52.188;8.602;2023-12-29T06:51:42;10.38;81.78
66740;DHT22;53653;52.188;8.602;2023-12-29T06:54:08;10.39;81.56
66740;DHT22;53653;52.188;8.602;2023-12-29T06:56:34;10.36;81.64
66740;DHT22;53653;52.188;8.602;2023-12-29T06:58:59;10.39;81.25
66740;DHT22;53653;52.188;8.602;2023-12-29T07:01:25;10.43;81.10
66740;DHT22;53653;52.188;8.602;2023-12-29T07:03:51;10.38;81.28
66740;DHT22;53653;52.188;8.602;2023-12-29T07:06:16;10.39;81.30
66740;DHT22;53653;52.188;8.602;2023-12-29T07:08:42;10.42;81.05
66740;DHT22;53653;52.188;8.602;2023-12-29T07:11:11;10.35;81.35
66740;DHT22;53653;52.188;8.602;2023-12-29T07:13:37;10.40;81.07
66740;DHT22;53653;52.188;8.602;2023-12-29T07:16:03;10.35;81.04
66740;DHT22;53653;52.188;8.602;2023-12-29T07:18:29;10.35;80.96
66740;DHT22;53653;52.188;8.602;2023-12-29T07:20:54;10.35;81.18
66740;DHT22;53653;52.188;8.602;2023-12-29T07:23:20;10.38;81.14
66740;DHT22;53653;52.188;8.602;2023-12-29T07:25:47;10.36;80.91
66740;DHT22;53653;52.188;8.602;2023-12-29T07:28:13;10.39;80.79
66740;DHT22;53653;52.188;8.602;2023-12-29T07:30:39;10.40;80.71
66740;DHT22;53653;52.188;8.602;2023-12-29T07:33:04;10.40;80.66
66740;DHT22;53653;52.188;8.602;2023-12-29T07:35:30;10.39;80.69
66740;DHT22;53653;52.188;8.602;2023-12-29T07:37:56;10.39;80.27
66740;DHT22;53653;52.188;8.602;2023-12-29T07:40:21;10.39;80.22
66740;DHT22;53653;52.188;8.602;2023-12-29T07:42:48;10.40;80.08
66740;DHT22;53653;52.188;8.602;2023-12-29T07:45:16;10.40;80.09
66740;DHT22;53653;52.188;8.602;2023-12-29T07:47:42;10.36;80.36
66740;DHT22;53653;52.188;8.602;2023-12-29T07:50:08;10.39;79.83
66740;DHT22;53653;52.188;8.602;2023-12-29T07:52:34;10.38;79.98
66740;DHT22;53653;52.188;8.602;2023-12-29T07:55:00;10.33;80.13
66740;DHT22;53653;52.188;8.602;2023-12-29T07:57:25;10.39;79.74
66740;DHT22;53653;52.188;8.602;2023-12-29T07:59:51;10.42;79.46
66740;DHT22;53653;52.188;8.602;2023-12-29T08:02:16;10.42;79.40
66740;DHT22;53653;52.188;8.602;2023-12-29T08:04:42;10.45;79.42
66740;DHT22;53653;52.188;8.602;2023-12-29T08:07:07;10.42;79.59
66740;DHT22;53653;52.188;8.602;2023-12-29T08:09:33;10.42;79.28
66740;DHT22;53653;52.188;8.602;2023-12-29T08:11:58;10.38;79.51
66740;DHT22;53653;52.188;8.602;2023-12-29T08:14:23;10.39;79.58
66740;DHT22;53653;52.188;8.602;2023-12-29T08:16:49;10.43;79.26
66740;DHT22;53653;52.188;8.602;2023-12-29T08:19:14;10.48;79.13
66740;DHT22;53653;52.188;8.602;2023-12-29T08:21:41;10.42;79.51
66740;DHT22;53653;52.188;8.602;2023-12-29T08:24:06;10.42;79.36
66740;DHT22;53653;52.188;8.602;2023-12-29T08:26:32;10.39;80.04
66740;DHT22;53653;52.188;8.602;2023-12-29T08:28:57;10.43;80.00
66740;DHT22;53653;52.188;8.602;2023-12-29T08:31:23;10.42;80.22
66740;DHT22;53653;52.188;8.602;2023-12-29T08:33:49;10.40;80.26
66740;DHT22;53653;52.188;8.602;2023-12-29T08:36:18;10.38;80.45
66740;DHT22;53653;52.188;8.602;2023-12-29T08:38:43;10.35;80.92
66740;DHT22;53653;52.188;8.602;2023-12-29T08:41:09;10.40;81.04
66740;DHT22;53653;52.188;8.602;2023-12-29T08:43:34;10.30;81.73
66740;DHT22;53653;52.188;8.602;2023-12-29T08:46:01;10.28;82.35
66740;DHT22;53653;52.188;8.602;2023-12-29T08:48:27;10.15;82.98
66740;DHT22;53653;52.188;8.602;2023-12-29T08:50:52;10.13;83.67
66740;DHT22;53653;52.188;8.602;2023-12-29T08:53:17;10.06;84.49
66740;DHT22;53653;52.188;8.602;2023-12-29T08:55:43;9.91;85.72
66740;DHT22;53653;52.188;8.602;2023-12-29T08:58:09;9.82;86.30
66740;DHT22;53653;52.188;8.602;2023-12-29T09:00:34;9.82;86.22
66740;DHT22;53653;52.188;8.602;2023-12-29T09:03:00;9.75;86.56
66740;DHT22;53653;52.188;8.602;2023-12-29T09:05:25;9.67;86.74
66740;DHT22;53653;52.188;8.602;2023-12-29T09:07:50;9.67;86.41
66740;DHT22;53653;52.188;8.602;2023-12-29T09:10:16;9.58;86.97
66740;DHT22;53653;52.188;8.602;2023-12-29T09:12:41;9.58;87.40
66740;DHT22;53653;52.188;8.602;2023-12-29T09:15:07;9.48;88.08
66740;DHT22;53653;52.188;8.602;2023-12-29T09:17:33;9.50;88.43
66740;DHT22;53653;52.188;8.602;2023-12-29T09:19:59;9.43;89.01
66740;DHT22;53653;52.188;8.602;2023-12-29T09:22:25;9.43;89.09
66740;DHT22;53653;52.188;8.602;2023-12-29T09:24:50;9.40;89.81
66740;DHT22;53653;52.188;8.602;2023-12-29T09:27:16;9.36;90.23
66740;DHT22;53653;52.188;8.602;2023-12-29T09:29:42;9.43;90.14
66740;DHT22;53653;52.188;8.602;2023-12-29T09:32:08;9.44;90.28
66740;DHT22;53653;52.188;8.602;2023-12-29T09:34:33;9.43;90.62
66740;DHT22;53653;52.188;8.602;2023-12-29T09:36:59;9.44;90.38
66740;DHT22;53653;52.188;8.602;2023-12-29T09:39:24;9.47;90.27
66740;DHT22;53653;52.188;8.602;2023-12-29T09:41:56;9.53;90.27
66740;DHT22;53653;52.188;8.602;2023-12-29T09:44:22;9.55;90.31
66740;DHT22;53653;52.188;8.602;2023-12-29T09:46:49;9.51;90.58
66740;DHT22;53653;52.188;8.602;2023-12-29T09:49:18;9.48;90.57
66740;DHT22;53653;52.188;8.602;2023-12-29T09:51:44;9.44;90.92
66740;DHT22;53653;52.188;8.602;2023-12-29T09:54:10;9.53;90.79
66740;DHT22;53653;52.188;8.602;2023-12-29T09:56:37;9.57;90.78
66740;DHT22;53653;52.188;8.602;2023-12-29T09:59:03;9.62;90.43
66740;DHT22;53653;52.188;8.602;2023-12-29T10:01:29;9.65;90.31
66740;DHT22;53653;52.188;8.602;2023-12-29T10:03:56;9.67;90.00
66740;DHT22;53653;52.188;8.602;2023-12-29T10:06:26;9.69;89.74
66740;DHT22;53653;52.188;8.602;2023-12-29T10:08:52;9.75;89.81
66740;DHT22;53653;52.188;8.602;2023-12-29T10:11:21;9.80;89.45
66740;DHT22;53653;52.188;8.602;2023-12-29T10:13:50;9.81;89.11
66740;DHT22;53653;52.188;8.602;2023-12-29T10:16:32;9.87;89.19
66740;DHT22;53653;52.188;8.602;2023-12-29T10:21:57;9.94;88.70
66740;DHT22;53653;52.188;8.602;2023-12-29T10:24:28;9.99;88.49
66740;DHT22;53653;52.188;8.602;2023-12-29T10:26:54;9.97;88.46
66740;DHT22;53653;52.188;8.602;2023-12-29T10:29:20;10.01;88.37
66740;DHT22;53653;52.188;8.602;2023-12-29T10:31:46;10.05;88.37
66740;DHT22;53653;52.188;8.602;2023-12-29T10:34:23;10.02;87.91
66740;DHT22;53653;52.188;8.602;2023-12-29T10:36:54;10.06;88.39
66740;DHT22;53653;52.188;8.602;2023-12-29T10:39:19;10.16;88.33
66740;DHT22;53653;52.188;8.602;2023-12-29T10:41:45;10.12;88.07
66740;DHT22;53653;52.188;8.602;2023-12-29T10:44:11;10.16;88.08
66740;DHT22;53653;52.188;8.602;2023-12-29T10:46:36;10.15;87.86
66740;DHT22;53653;52.188;8.602;2023-12-29T10:49:12;10.15;87.94
66740;DHT22;53653;52.188;8.602;2023-12-29T10:51:38;10.18;87.78
66740;DHT22;53653;52.188;8.602;2023-12-29T10:54:04;10.25;87.69
66740;DHT22;53653;52.188;8.602;2023-12-29T10:56:33;10.25;87.62
66740;DHT22;53653;52.188;8.602;2023-12-29T10:59:03;10.28;87.27
66740;DHT22;53653;52.188;8.602;2023-12-29T11:01:34;10.32;87.13
66740;DHT22;53653;52.188;8.602;2023-12-29T11:04:01;10.32;87.06
66740;DHT22;53653;52.188;8.602;2023-12-29T11:06:27;10.32;86.78
66740;DHT22;53653;52.188;8.602;2023-12-29T11:08:56;10.39;86.90
66740;DHT22;53653;52.188;8.602;2023-12-29T11:11:22;10.42;86.52
66740;DHT22;53653;52.188;8.602;2023-12-29T11:13:48;10.45;86.39
66740;DHT22;53653;52.188;8.602;2023-12-29T11:16:16;10.46;86.19
66740;DHT22;53653;52.188;8.602;2023-12-29T11:18:43;10.45;86.06
66740;DHT22;53653;52.188;8.602;2023-12-29T11:21:10;10.49;86.05
66740;DHT22;53653;52.188;8.602;2023-12-29T11:23:36;10.50;85.92
66740;DHT22;53653;52.188;8.602;2023-12-29T11:26:02;10.52;85.71
66740;DHT22;53653;52.188;8.602;2023-12-29T11:28:28;10.55;85.32
66740;DHT22;53653;52.188;8.602;2023-12-29T11:30:54;10.56;85.09
66740;DHT22;53653;52.188;8.602;2023-12-29T11:33:41;10.61;85.14
66740;DHT22;53653;52.188;8.602;2023-12-29T11:36:29;10.64;84.84
66740;DHT22;53653;52.188;8.602;2023-12-29T11:39:27;10.68;84.73
66740;DHT22;53653;52.188;8.602;2023-12-29T11:42:21;10.63;84.77
66740;DHT22;53653;52.188;8.602;2023-12-29T11:44:48;10.57;85.12
66740;DHT22;53653;52.188;8.602;2023-12-29T11:47:35;10.53;85.98
66740;DHT22;53653;52.188;8.602;2023-12-29T11:50:03;10.52;86.52
66740;DHT22;53653;52.188;8.602;2023-12-29T11:52:38;10.43;87.15
66740;DHT22;53653;52.188;8.602;2023-12-29T11:55:09;10.35;87.75
66740;DHT22;53653;52.188;8.602;2023-12-29T11:57:34;10.33;87.95
66740;DHT22;53653;52.188;8.602;2023-12-29T12:00:02;10.33;87.70
66740;DHT22;53653;52.188;8.602;2023-12-29T12:02:37;10.38;87.57
66740;DHT22;53653;52.188;8.602;2023-12-29T12:05:03;10.43;87.25
66740;DHT22;53653;52.188;8.602;2023-12-29T12:12:45;10.43;86.99
66740;DHT22;53653;52.188;8.602;2023-12-29T12:15:38;10.45;86.85
66740;DHT22;53653;52.188;8.602;2023-12-29T12:18:05;10.50;86.78
66740;DHT22;53653;52.188;8.602;2023-12-29T12:20:35;10.52;86.92
66740;DHT22;53653;52.188;8.602;2023-12-29T12:23:19;10.52;86.74
66740;DHT22;53653;52.188;8.602;2023-12-29T12:25:45;10.50;86.71
66740;DHT22;53653;52.188;8.602;2023-12-29T12:28:14;10.49;86.66
66740;DHT22;53653;52.188;8.602;2023-12-29T12:30:39;10.52;86.64
66740;DHT22;53653;52.188;8.602;2023-12-29T12:33:05;10.52;86.54
66740;DHT22;53653;52.188;8.602;2023-12-29T12:35:31;10.53;86.54
66740;DHT22;53653;52.188;8.602;2023-12-29T12:38:13;10.53;86.15
66740;DHT22;53653;52.188;8.602;2023-12-29T12:40:40;10.66;85.94
66740;DHT22;53653;52.188;8.602;2023-12-29T12:43:06;10.61;86.03
66740;DHT22;53653;52.188;8.602;2023-12-29T12:45:42;10.60;85.71
66740;DHT22;53653;52.188;8.602;2023-12-29T12:48:41;10.70;85.32
66740;DHT22;53653;52.188;8.602;2023-12-29T12:51:09;10.73;84.92
66740;DHT22;53653;52.188;8.602;2023-12-29T12:53:39;10.90;84.35
66740;DHT22;53653;52.188;8.602;2023-12-29T12:56:05;10.87;83.97
66740;DHT22;53653;52.188;8.602;2023-12-29T12:58:31;10.88;83.54
66740;DHT22;53653;52.188;8.602;2023-12-29T13:00:57;10.88;83.35
66740;DHT22;53653;52.188;8.602;2023-12-29T13:03:24;10.85;83.15
66740;DHT22;53653;52.188;8.602;2023-12-29T13:05:50;10.81;82.40
66740;DHT22;53653;52.188;8.602;2023-12-29T13:08:16;10.81;82.45
66740;DHT22;53653;52.188;8.602;2023-12-29T13:10:42;10.80;82.31
66740;DHT22;53653;52.188;8.602;2023-12-29T13:13:08;10.81;82.01
66740;DHT22;53653;52.188;8.602;2023-12-29T13:15:34;10.85;81.62
66740;DHT22;53653;52.188;8.602;2023-12-29T13:18:00;10.91;81.89
66740;DHT22;53653;52.188;8.602;2023-12-29T13:20:25;10.93;81.57
66740;DHT22;53653;52.188;8.602;2023-12-29T13:22:51;10.94;81.55
66740;DHT22;53653;52.188;8.602;2023-12-29T13:25:35;10.87;81.21
66740;DHT22;53653;52.188;8.602;2023-12-29T13:28:00;10.85;81.40
66740;DHT22;53653;52.188;8.602;2023-12-29T13:30:28;10.85;81.56
66740;DHT22;53653;52.188;8.602;2023-12-29T13:32:54;10.88;81.69
66740;DHT22;53653;52.188;8.602;2023-12-29T13:35:25;10.87;81.53
66740;DHT22;53653;52.188;8.602;2023-12-29T13:38:02;10.87;81.31
66740;DHT22;53653;52.188;8.602;2023-12-29T13:40:39;10.88;81.35
66740;DHT22;53653;52.188;8.602;2023-12-29T13:43:08;10.83;81.70
66740;DHT22;53653;52.188;8.602;2023-12-29T13:45:35;10.84;81.51
66740;DHT22;53653;52.188;8.602;2023-12-29T13:48:01;10.83;81.57
66740;DHT22;53653;52.188;8.602;2023-12-29T13:50:28;10.88;81.65
66740;DHT22;53653;52.188;8.602;2023-12-29T13:52:53;10.83;81.40
66740;DHT22;53653;52.188;8.602;2023-12-29T13:55:23;10.84;81.44
66740;DHT22;53653;52.188;8.602;2023-12-29T13:57:49;10.81;81.55
66740;DHT22;53653;52.188;8.602;2023-12-29T14:00:21;10.81;81.52
66740;DHT22;53653;52.188;8.602;2023-12-29T14:03:14;10.84;81.39
66740;DHT22;53653;52.188;8.602;2023-12-29T14:08:26;10.87;80.96
66740;DHT22;53653;52.188;8.602;2023-12-29T14:10:52;10.78;81.06
66740;DHT22;53653;52.188;8.602;2023-12-29T14:13:18;10.81;81.12
66740;DHT22;53653;52.188;8.602;2023-12-29T14:15:45;10.80;81.18
66740;DHT22;53653;52.188;8.602;2023-12-29T14:21:32;10.80;81.37
66740;DHT22;53653;52.188;8.602;2023-12-29T14:24:10;10.74;81.51
66740;DHT22;53653;52.188;8.602;2023-12-29T14:26:37;10.76;81.28
66740;DHT22;53653;52.188;8.602;2023-12-29T14:29:07;10.76;81.50
66740;DHT22;53653;52.188;8.602;2023-12-29T14:31:41;10.77;81.39
66740;DHT22;53653;52.188;8.602;2023-12-29T14:34:07;10.73;81.39
66740;DHT22;53653;52.188;8.602;2023-12-29T14:36:34;10.68;81.50
66740;DHT22;53653;52.188;8.602;2023-12-29T14:39:00;10.64;81.71
66740;DHT22;53653;52.188;8.602;2023-12-29T14:41:26;10.60;81.87
66740;DHT22;53653;52.188;8.602;2023-12-29T14:43:53;10.61;81.92
66740;DHT22;53653;52.188;8.602;2023-12-29T14:46:18;10.59;81.99
66740;DHT22;53653;52.188;8.602;2023-12-29T14:48:44;10.52;82.22
66740;DHT22;53653;52.188;8.602;2023-12-29T14:51:09;10.59;82.17
66740;DHT22;53653;52.188;8.602;2023-12-29T14:53:37;10.56;82.26
66740;DHT22;53653;52.188;8.602;2023-12-29T14:56:03;10.56;82.20
66740;DHT22;53653;52.188;8.602;2023-12-29T14:58:29;10.55;82.19
66740;DHT22;53653;52.188;8.602;2023-12-29T15:00:54;10.52;82.42
66740;DHT22;53653;52.188;8.602;2023-12-29T15:03:20;10.50;82.46
66740;DHT22;53653;52.188;8.602;2023-12-29T15:05:46;10.46;82.65
66740;DHT22;53653;52.188;8.602;2023-12-29T15:08:13;10.49;82.62
66740;DHT22;53653;52.188;8.602;2023-12-29T15:10:38;10.45;82.94
66740;DHT22;53653;52.188;8.602;2023-12-29T15:13:04;10.46;83.05
66740;DHT22;53653;52.188;8.602;2023-12-29T15:15:32;10.46;82.89
66740;DHT22;53653;52.188;8.602;2023-12-29T15:17:57;10.46;83.01
66740;DHT22;53653;52.188;8.602;2023-12-29T15:20:23;10.46;82.94
66740;DHT22;53653;52.188;8.602;2023-12-29T15:22:48;10.49;83.02
66740;DHT22;53653;52.188;8.602;2023-12-29T15:25:15;10.40;83.28
66740;DHT22;53653;52.188;8.602;2023-12-29T15:27:41;10.40;83.41
66740;DHT22;53653;52.188;8.602;2023-12-29T15:30:08;10.39;83.15
66740;DHT22;53653;52.188;8.602;2023-12-29T15:32:33;10.36;83.16
66740;DHT22;53653;52.188;8.602;2023-12-29T15:34:59;10.25;83.51
66740;DHT22;53653;52.188;8.602;2023-12-29T15:37:24;10.28;83.43
66740;DHT22;53653;52.188;8.602;2023-12-29T15:39:50;10.29;83.33
66740;DHT22;53653;52.188;8.602;2023-12-29T15:42:15;10.26;83.54
66740;DHT22;53653;52.188;8.602;2023-12-29T15:44:41;10.09;83.54
66740;DHT22;53653;52.188;8.602;2023-12-29T15:47:06;10.09;83.50
66740;DHT22;53653;52.188;8.602;2023-12-29T15:49:32;10.11;83.64